Time;durP1;ratioP1;P1;durP2;ratioP2;P2;SDS_P1;SDS_P2;PMS_P1;PMS_P2;Temp;Humidity;BMP_temperature;BMP_pressure;BME280_temperature;BME280_humidity;BME280_pressure;Samples;Min_cycle;Max_cycle;Signal;HPM_P1;HPM_P2
2023/06/17 00:00:22;;;;;;;12.05;6.13;;;18.50;92.90;;;;;;5052878;28;20446;-76
2023/06/17 00:02:48;;;;;;;7.68;5.95;;;18.50;92.90;;;;;;5053124;28;20025;-76
2023/06/17 00:05:14;;;;;;;9.50;5.88;;;18.50;92.90;;;;;;5053112;28;20025;-76
2023/06/17 00:07:41;;;;;;;6.15;5.50;;;18.50;92.90;;;;;;5053079;28;20051;-77
2023/06/17 00:10:08;;;;;;;13.05;6.53;;;18.40;92.90;;;;;;5053092;28;20481;-77
2023/06/17 00:12:33;;;;;;;14.82;6.13;;;18.40;93.00;;;;;;5053224;28;20032;-77
2023/06/17 00:15:01;;;;;;;8.63;5.18;;;18.40;93.10;;;;;;5053133;28;20377;-77
2023/06/17 00:17:30;;;;;;;6.60;5.18;;;18.40;93.10;;;;;;5052951;28;20013;-78
2023/06/17 00:19:57;;;;;;;10.02;5.78;;;18.40;93.10;;;;;;5052761;28;20477;-77
2023/06/17 00:22:25;;;;;;;8.32;5.57;;;18.30;92.80;;;;;;5052811;28;20029;-78
2023/06/17 00:24:52;;;;;;;6.10;4.85;;;18.40;92.90;;;;;;5053001;28;20025;-77
2023/06/17 00:27:17;;;;;;;11.30;5.20;;;18.30;92.80;;;;;;5052661;28;20033;-76
2023/06/17 00:29:43;;;;;;;9.23;5.20;;;18.30;92.80;;;;;;5034958;28;20040;-75
2023/06/17 00:32:09;;;;;;;8.35;5.75;;;18.20;92.60;;;;;;5052967;28;20033;-77
2023/06/17 00:34:34;;;;;;;6.88;4.97;;;18.20;92.60;;;;;;5052612;28;20112;-76
2023/06/17 00:37:00;;;;;;;8.88;4.70;;;18.20;92.40;;;;;;5052959;28;20384;-76
2023/06/17 00:39:26;;;;;;;10.93;5.10;;;18.20;92.40;;;;;;5052949;28;20028;-76
2023/06/17 00:41:52;;;;;;;7.25;5.07;;;18.20;92.30;;;;;;5052564;28;20400;-77
2023/06/17 00:44:17;;;;;;;6.55;4.55;;;18.20;92.20;;;;;;5052567;28;20481;-77
2023/06/17 00:46:52;;;;;;;7.75;5.22;;;18.20;92.30;;;;;;5052663;28;20388;-77
2023/06/17 00:49:19;;;;;;;11.48;4.75;;;18.20;92.30;;;;;;5052495;28;20488;-77
2023/06/17 00:51:45;;;;;;;7.82;5.05;;;18.20;92.30;;;;;;5052713;28;20048;-78
2023/06/17 00:54:13;;;;;;;5.65;4.93;;;18.20;92.20;;;;;;5052702;28;20025;-77
2023/06/17 00:56:40;;;;;;;5.95;4.63;;;18.10;92.20;;;;;;5052529;28;20025;-77
2023/06/17 00:59:07;;;;;;;10.02;5.28;;;18.10;92.30;;;;;;5049597;28;20057;-77
2023/06/17 01:01:35;;;;;;;9.48;4.60;;;18.10;92.30;;;;;;5049613;28;20431;-78
2023/06/17 01:04:02;;;;;;;6.55;4.45;;;18.10;92.40;;;;;;5050127;28;20461;-77
2023/06/17 01:06:43;;;;;;;8.45;5.43;;;18.10;92.30;;;;;;5052308;28;20075;-77
2023/06/17 01:09:16;;;;;;;7.32;4.35;;;18.10;92.20;;;;;;5052443;28;20028;-76
2023/06/17 01:11:43;;;;;;;12.82;5.28;;;18.10;92.10;;;;;;5052546;28;20437;-76
2023/06/17 01:14:10;;;;;;;6.13;5.05;;;18.10;92.10;;;;;;5056227;28;20048;-77
2023/06/17 01:16:42;;;;;;;7.20;4.88;;;18.10;92.10;;;;;;5056240;28;20033;-77
2023/06/17 01:19:18;;;;;;;8.80;5.40;;;18.10;92.00;;;;;;5056400;28;20025;-77
2023/06/17 01:21:51;;;;;;;10.55;5.00;;;18.00;92.00;;;;;;5055927;28;20037;-77
2023/06/17 01:24:28;;;;;;;7.45;5.43;;;18.00;92.20;;;;;;5056336;28;20064;-78
2023/06/17 01:26:59;;;;;;;10.77;5.00;;;18.00;92.30;;;;;;5056450;28;20029;-78
2023/06/17 01:29:29;;;;;;;8.63;5.28;;;17.90;92.10;;;;;;5055979;28;20100;-78
2023/06/17 01:31:57;;;;;;;9.43;5.25;;;17.90;92.10;;;;;;5056103;28;20473;-78
2023/06/17 01:34:55;;;;;;;8.63;4.85;;;17.90;92.10;;;;;;5056044;28;20021;-77
2023/06/17 01:37:28;;;;;;;11.50;4.88;;;17.90;92.10;;;;;;5051492;28;20099;-77
2023/06/17 01:39:57;;;;;;;10.63;5.50;;;17.80;92.10;;;;;;5055610;28;20020;-77
2023/06/17 01:42:31;;;;;;;11.15;5.30;;;17.80;92.10;;;;;;5037455;28;20033;-77
2023/06/17 01:45:01;;;;;;;7.95;5.55;;;17.70;92.20;;;;;;5055922;28;20060;-77
2023/06/17 01:47:27;;;;;;;7.63;5.13;;;17.70;92.30;;;;;;5055922;28;20112;-78
2023/06/17 01:49:57;;;;;;;7.50;5.18;;;17.70;92.50;;;;;;5055802;28;20037;-77
2023/06/17 01:52:22;;;;;;;6.68;5.45;;;17.70;92.60;;;;;;5055630;28;20021;-77
2023/06/17 01:54:48;;;;;;;10.40;5.72;;;17.70;92.60;;;;;;5055977;28;20083;-77
2023/06/17 01:57:14;;;;;;;10.73;5.10;;;17.60;92.60;;;;;;5055935;28;20484;-77
2023/06/17 01:59:39;;;;;;;8.15;5.45;;;17.60;92.90;;;;;;5055582;28;20033;-78
2023/06/17 02:02:05;;;;;;;7.15;5.30;;;17.60;92.70;;;;;;5055263;28;20021;-77
2023/06/17 02:04:30;;;;;;;14.27;5.22;;;17.60;92.80;;;;;;5055418;28;20071;-77
2023/06/17 02:06:56;;;;;;;7.07;5.30;;;17.60;92.90;;;;;;5055551;28;20025;-77
2023/06/17 02:09:22;;;;;;;10.50;5.32;;;17.50;92.90;;;;;;5055416;28;20078;-77
2023/06/17 02:11:48;;;;;;;9.20;5.32;;;17.50;93.10;;;;;;5055416;28;20479;-77
2023/06/17 02:14:13;;;;;;;8.82;5.82;;;17.50;93.10;;;;;;5055522;28;20035;-78
2023/06/17 02:16:44;;;;;;;10.00;5.53;;;17.50;93.10;;;;;;5055505;28;20091;-78
2023/06/17 02:19:09;;;;;;;9.30;5.80;;;17.50;93.00;;;;;;5055296;28;20044;-78
2023/06/17 02:21:35;;;;;;;9.85;5.93;;;17.50;93.00;;;;;;5055207;28;20021;-77
2023/06/17 02:24:01;;;;;;;7.78;5.93;;;17.40;93.10;;;;;;5054411;28;20021;-77
2023/06/17 02:26:26;;;;;;;12.50;5.65;;;17.40;93.10;;;;;;5055277;28;20104;-78
2023/06/17 02:28:52;;;;;;;12.45;5.53;;;17.40;93.00;;;;;;5055193;28;20100;-78
2023/06/17 02:31:17;;;;;;;9.73;6.07;;;17.40;93.10;;;;;;5055110;28;20112;-78
2023/06/17 02:33:43;;;;;;;11.40;6.03;;;17.30;93.10;;;;;;5037248;28;20024;-78
2023/06/17 02:36:09;;;;;;;16.52;6.22;;;17.30;93.10;;;;;;5054787;28;20052;-78
2023/06/17 02:38:36;;;;;;;8.82;6.10;;;17.30;93.30;;;;;;5054950;28;20031;-77
2023/06/17 02:41:02;;;;;;;11.45;5.85;;;17.30;93.30;;;;;;5055016;28;20079;-77
2023/06/17 02:43:27;;;;;;;12.25;6.38;;;17.30;93.30;;;;;;5054785;28;20029;-75
2023/06/17 02:45:53;;;;;;;9.82;5.38;;;17.20;93.40;;;;;;5054652;28;20021;-78
2023/06/17 02:48:18;;;;;;;8.73;6.22;;;17.20;93.40;;;;;;5036990;28;20504;-76
2023/06/17 02:50:45;;;;;;;11.23;5.20;;;17.20;93.30;;;;;;5054725;28;20534;-78
2023/06/17 02:53:10;;;;;;;9.60;5.95;;;17.20;93.30;;;;;;5054694;28;20465;-78
2023/06/17 02:55:37;;;;;;;5.93;4.78;;;17.10;93.50;;;;;;5054640;28;20025;-77
2023/06/17 02:58:03;;;;;;;7.20;4.93;;;17.10;93.40;;;;;;5054941;28;20045;-77
2023/06/17 03:00:29;;;;;;;11.88;5.18;;;17.20;93.40;;;;;;5054555;28;20044;-77
2023/06/17 03:02:55;;;;;;;12.90;5.32;;;17.20;93.30;;;;;;4956553;28;20368;-74
2023/06/17 03:05:22;;;;;;;8.27;5.20;;;17.10;93.00;;;;;;4953327;28;20031;-77
2023/06/17 03:07:48;;;;;;;8.38;4.93;;;17.10;93.00;;;;;;4953587;28;20457;-76
2023/06/17 03:10:15;;;;;;;7.60;5.13;;;17.10;93.10;;;;;;4953642;28;20158;-77
2023/06/17 03:12:41;;;;;;;7.82;4.65;;;17.10;93.10;;;;;;4953545;28;20146;-77
2023/06/17 03:15:08;;;;;;;7.28;4.70;;;17.10;92.90;;;;;;4953079;28;20023;-77
2023/06/17 03:17:33;;;;;;;9.27;4.80;;;17.10;92.70;;;;;;4953454;28;20379;-78
2023/06/17 03:19:59;;;;;;;8.10;4.65;;;17.00;92.60;;;;;;4953240;28;20042;-77
2023/06/17 03:22:25;;;;;;;7.35;5.57;;;17.10;92.50;;;;;;4953443;28;20032;-77
2023/06/17 03:24:50;;;;;;;7.65;5.38;;;17.10;92.50;;;;;;4953380;28;20034;-77
2023/06/17 03:27:16;;;;;;;9.77;5.53;;;17.10;92.50;;;;;;4953384;28;20427;-78
2023/06/17 03:29:42;;;;;;;9.82;5.38;;;17.10;92.50;;;;;;5019274;28;20042;-77
2023/06/17 03:32:07;;;;;;;6.80;5.45;;;17.10;92.60;;;;;;5019206;28;20468;-78
2023/06/17 03:34:33;;;;;;;7.13;4.60;;;17.00;92.50;;;;;;5019299;28;20058;-78
2023/06/17 03:36:59;;;;;;;15.52;4.97;;;17.00;92.50;;;;;;4951797;28;20103;-77
2023/06/17 03:39:24;;;;;;;8.27;5.20;;;17.00;92.50;;;;;;4953663;28;20063;-77
2023/06/17 03:41:50;;;;;;;9.00;5.05;;;16.90;92.40;;;;;;4953176;28;20069;-77
2023/06/17 03:44:16;;;;;;;12.73;4.75;;;16.90;92.30;;;;;;4952528;28;20118;-77
2023/06/17 03:46:41;;;;;;;13.68;4.90;;;16.90;92.30;;;;;;4952964;28;20018;-76
2023/06/17 03:49:07;;;;;;;8.57;4.35;;;16.90;92.40;;;;;;5035128;28;20031;-77
2023/06/17 03:51:33;;;;;;;10.25;5.03;;;16.80;92.30;;;;;;4952707;28;20035;-77
2023/06/17 03:53:59;;;;;;;7.95;4.53;;;16.80;92.30;;;;;;4952695;28;20102;-77
2023/06/17 03:56:26;;;;;;;11.27;4.78;;;16.90;92.40;;;;;;4952536;28;20503;-76
2023/06/17 03:58:53;;;;;;;9.32;4.80;;;16.90;92.40;;;;;;4952660;28;20038;-77
2023/06/17 04:01:19;;;;;;;8.50;4.63;;;16.80;92.50;;;;;;4952603;28;20034;-76
2023/06/17 04:03:45;;;;;;;6.35;4.75;;;16.90;92.50;;;;;;4952547;28;20012;-76
2023/06/17 04:06:11;;;;;;;8.50;4.72;;;16.90;92.50;;;;;;4952518;28;20080;-78
2023/06/17 04:08:37;;;;;;;11.10;5.03;;;16.80;92.50;;;;;;4952598;28;20023;-78
2023/06/17 04:11:03;;;;;;;6.93;4.93;;;16.90;92.60;;;;;;4952430;28;20053;-76
2023/06/17 04:13:28;;;;;;;4.75;4.25;;;16.90;92.60;;;;;;4952291;29;20471;-78
2023/06/17 04:15:54;;;;;;;5.35;4.35;;;16.90;92.80;;;;;;4952430;28;20517;-77
2023/06/17 04:18:20;;;;;;;10.40;5.07;;;16.90;92.90;;;;;;4952446;28;20422;-76
2023/06/17 04:20:45;;;;;;;5.05;4.40;;;16.90;93.00;;;;;;4952642;28;20459;-77
2023/06/17 04:23:11;;;;;;;6.70;4.85;;;16.90;93.10;;;;;;4952317;28;20027;-76
2023/06/17 04:25:38;;;;;;;10.75;4.97;;;16.90;93.10;;;;;;4952124;28;20034;-77
2023/06/17 04:28:06;;;;;;;9.48;4.90;;;17.00;93.10;;;;;;4952370;28;20495;-77
2023/06/17 04:30:33;;;;;;;5.28;4.35;;;16.90;93.30;;;;;;4952363;28;20075;-77
2023/06/17 04:33:00;;;;;;;6.07;4.50;;;17.00;93.00;;;;;;4952047;28;20019;-77
2023/06/17 04:35:29;;;;;;;6.55;4.63;;;17.00;92.80;;;;;;5018601;28;20058;-77
2023/06/17 04:37:55;;;;;;;7.03;4.70;;;17.00;93.00;;;;;;4952337;28;20428;-78
2023/06/17 04:40:25;;;;;;;6.53;4.30;;;17.10;93.20;;;;;;4951953;28;20057;-77
2023/06/17 04:42:51;;;;;;;10.32;4.97;;;17.10;93.20;;;;;;4951869;28;20033;-77
2023/06/17 04:45:17;;;;;;;8.35;4.30;;;17.10;93.20;;;;;;4952109;28;20019;-76
2023/06/17 04:47:46;;;;;;;6.32;4.78;;;17.20;93.20;;;;;;4951925;28;20023;-77
2023/06/17 04:50:16;;;;;;;7.63;4.38;;;17.20;93.00;;;;;;4952026;28;20027;-77
2023/06/17 04:52:43;;;;;;;9.77;4.57;;;17.20;92.70;;;;;;4952051;28;20110;-78
2023/06/17 04:55:13;;;;;;;5.15;4.07;;;17.20;92.60;;;;;;4951885;28;20028;-78
2023/06/17 04:57:43;;;;;;;6.95;4.32;;;17.30;92.50;;;;;;4952018;28;20023;-77
2023/06/17 05:00:12;;;;;;;5.00;4.30;;;17.30;92.30;;;;;;4952106;28;20398;-78
2023/06/17 05:02:41;;;;;;;10.07;4.65;;;17.30;92.10;;;;;;4952148;28;20084;-77
2023/06/17 05:05:07;;;;;;;5.50;4.50;;;17.40;92.10;;;;;;4951311;28;20028;-76
2023/06/17 05:07:34;;;;;;;5.38;4.15;;;17.40;92.00;;;;;;4951780;28;20471;-76
2023/06/17 05:10:00;;;;;;;12.98;4.60;;;17.40;92.00;;;;;;4951764;28;20576;-76
2023/06/17 05:12:26;;;;;;;9.48;4.47;;;17.50;92.20;;;;;;4952169;28;20026;-76
2023/06/17 05:14:52;;;;;;;11.27;4.65;;;17.50;92.30;;;;;;4951670;28;20085;-77
2023/06/17 05:17:18;;;;;;;8.63;4.30;;;17.50;92.70;;;;;;4951558;28;20396;-77
2023/06/17 05:19:44;;;;;;;7.75;4.10;;;17.50;92.40;;;;;;4951607;28;20027;-76
2023/06/17 05:22:09;;;;;;;10.20;4.35;;;17.60;92.30;;;;;;4952255;28;20093;-76
2023/06/17 05:24:35;;;;;;;10.25;4.85;;;17.60;92.30;;;;;;4952829;29;20051;-77
2023/06/17 05:27:01;;;;;;;7.70;4.53;;;17.60;92.30;;;;;;4951365;28;20395;-77
2023/06/17 05:29:26;;;;;;;9.43;4.15;;;17.70;92.30;;;;;;4951350;28;20471;-77
2023/06/17 05:31:52;;;;;;;11.05;4.85;;;17.70;92.10;;;;;;4951472;28;20047;-76
2023/06/17 05:34:17;;;;;;;12.32;5.35;;;17.70;92.00;;;;;;4951239;28;20103;-76
2023/06/17 05:36:43;;;;;;;10.48;4.80;;;17.80;92.10;;;;;;4951792;28;20165;-76
2023/06/17 05:39:09;;;;;;;11.98;5.32;;;17.80;92.20;;;;;;4951435;28;20023;-75
2023/06/17 05:41:34;;;;;;;11.20;5.88;;;17.90;92.40;;;;;;4950944;28;20065;-77
2023/06/17 05:44:00;;;;;;;13.10;7.03;;;17.90;92.50;;;;;;4951644;28;20128;-73
2023/06/17 05:46:26;;;;;;;14.82;8.40;;;18.00;92.80;;;;;;4951073;28;20042;-74
2023/06/17 05:48:51;;;;;;;10.38;8.10;;;17.90;92.90;;;;;;4951382;28;20035;-74
2023/06/17 05:51:17;;;;;;;8.52;7.38;;;18.00;93.00;;;;;;4950963;28;20039;-75
2023/06/17 05:53:43;;;;;;;9.70;6.97;;;18.00;93.10;;;;;;4951461;28;20464;-74
2023/06/17 05:56:09;;;;;;;9.48;5.75;;;18.10;93.30;;;;;;4951247;28;20043;-74
2023/06/17 05:58:36;;;;;;;13.05;4.63;;;18.20;93.40;;;;;;5017404;28;20364;-75
2023/06/17 06:01:01;;;;;;;7.78;5.05;;;18.20;93.20;;;;;;4954628;28;20038;-75
2023/06/17 06:03:27;;;;;;;15.15;5.75;;;18.20;93.00;;;;;;4954524;28;20035;-76
2023/06/17 06:05:53;;;;;;;65.60;23.25;;;18.30;93.80;;;;;;4954208;28;20110;-76
2023/06/17 06:08:18;;;;;;;8.30;5.97;;;18.40;93.90;;;;;;4954279;28;20506;-75
2023/06/17 06:10:44;;;;;;;116.80;26.55;;;18.50;93.90;;;;;;4954207;28;20039;-75
2023/06/17 06:13:10;;;;;;;34.15;15.52;;;18.50;93.80;;;;;;4954300;28;20023;-77
2023/06/17 06:15:36;;;;;;;36.85;14.80;;;18.50;93.80;;;;;;4953919;29;20031;-77
2023/06/17 06:18:02;;;;;;;33.90;13.60;;;18.60;93.60;;;;;;4953902;28;20024;-77
2023/06/17 06:20:28;;;;;;;10.90;7.18;;;18.70;94.10;;;;;;4954308;28;20070;-77
2023/06/17 06:22:54;;;;;;;68.53;13.00;;;18.70;94.30;;;;;;5020347;28;20452;-77
2023/06/17 06:25:20;;;;;;;22.40;10.00;;;18.80;94.00;;;;;;4953977;28;20094;-77
2023/06/17 06:27:47;;;;;;;291.10;32.33;;;18.80;94.10;;;;;;4953646;28;20073;-77
2023/06/17 06:30:13;;;;;;;12.40;6.25;;;18.90;93.90;;;;;;4953794;29;20039;-77
2023/06/17 06:32:39;;;;;;;9.80;6.40;;;18.90;94.40;;;;;;4953781;28;20027;-77
2023/06/17 06:35:05;;;;;;;10.13;4.30;;;19.00;93.90;;;;;;4954010;28;20116;-76
2023/06/17 06:37:31;;;;;;;14.40;7.47;;;19.00;93.40;;;;;;4953875;29;20019;-77
2023/06/17 06:39:56;;;;;;;18.88;8.70;;;19.10;92.90;;;;;;4953428;28;20074;-76
2023/06/17 06:42:22;;;;;;;93.43;13.40;;;19.10;93.00;;;;;;4953663;28;20035;-75
2023/06/17 06:44:48;;;;;;;10.27;4.50;;;19.20;93.50;;;;;;4953944;28;20038;-75
2023/06/17 06:47:14;;;;;;;10.38;6.15;;;19.20;93.40;;;;;;4953616;28;20098;-76
2023/06/17 06:49:40;;;;;;;1814.15;127.55;;;19.30;93.40;;;;;;4953573;28;20439;-75
2023/06/17 06:52:06;;;;;;;39.13;13.85;;;19.40;93.80;;;;;;4953199;28;20031;-72
2023/06/17 06:54:31;;;;;;;32.25;10.77;;;19.40;95.70;;;;;;4953726;28;20030;-74
2023/06/17 06:56:57;;;;;;;19.92;9.48;;;19.50;95.00;;;;;;4953521;28;20106;-75
2023/06/17 06:59:23;;;;;;;41.40;13.18;;;19.50;95.60;;;;;;4953765;28;20097;-75
2023/06/17 07:01:48;;;;;;;161.70;44.60;;;19.60;94.50;;;;;;4953785;28;20023;-78
2023/06/17 07:04:14;;;;;;;55.47;25.25;;;19.60;93.70;;;;;;4953650;28;20145;-74
2023/06/17 07:06:40;;;;;;;43.20;21.95;;;19.70;94.10;;;;;;4953531;28;20023;-77
2023/06/17 07:09:06;;;;;;;25.83;12.57;;;19.80;93.90;;;;;;4953077;28;20110;-74
2023/06/17 07:11:32;;;;;;;7.80;5.32;;;19.80;93.00;;;;;;4953200;28;20039;-75
2023/06/17 07:13:57;;;;;;;9.15;5.07;;;19.90;92.60;;;;;;4953297;28;20434;-74
2023/06/17 07:16:23;;;;;;;13.00;7.18;;;19.90;91.90;;;;;;4953102;28;20042;-74
2023/06/17 07:18:49;;;;;;;16.05;10.30;;;20.00;91.80;;;;;;5036218;28;20078;-76
2023/06/17 07:21:14;;;;;;;23.35;15.50;;;20.00;91.80;;;;;;4953079;28;20506;-73
2023/06/17 07:23:40;;;;;;;11.32;6.22;;;20.10;92.60;;;;;;5019345;28;20114;-76
2023/06/17 07:26:06;;;;;;;5.65;5.00;;;20.20;92.00;;;;;;4952938;28;20043;-80
2023/06/17 07:28:32;;;;;;;9.32;6.78;;;20.20;91.40;;;;;;4952895;28;20023;-74
2023/06/17 07:30:58;;;;;;;9.30;6.47;;;20.20;91.10;;;;;;4953028;28;20035;-76
2023/06/17 07:33:25;;;;;;;42.22;14.10;;;20.30;90.80;;;;;;4953077;28;20431;-78
2023/06/17 07:35:51;;;;;;;42.38;15.57;;;20.30;90.80;;;;;;4960675;22;20056;-76
2023/06/17 07:38:16;;;;;;;12.57;7.20;;;20.40;91.50;;;;;;4953143;28;20384;-76
2023/06/17 07:40:42;;;;;;;9.52;5.78;;;20.50;91.30;;;;;;4953072;28;20034;-75
2023/06/17 07:43:09;;;;;;;5.63;4.00;;;20.50;90.80;;;;;;4953009;28;20039;-76
2023/06/17 07:45:35;;;;;;;8.32;4.90;;;20.50;90.20;;;;;;4952998;28;20027;-76
2023/06/17 07:48:01;;;;;;;10.13;5.55;;;20.60;89.20;;;;;;4952927;28;20394;-76
2023/06/17 07:50:26;;;;;;;10.93;5.95;;;20.70;89.00;;;;;;4952969;28;20039;-76
2023/06/17 07:52:52;;;;;;;12.32;4.32;;;20.70;88.90;;;;;;4952961;28;20084;-76
2023/06/17 07:55:18;;;;;;;7.38;4.18;;;20.80;87.80;;;;;;4952972;28;20430;-76
2023/06/17 07:57:44;;;;;;;7.80;5.13;;;20.80;87.20;;;;;;4952774;28;20024;-76
2023/06/17 08:00:13;;;;;;;8.05;4.60;;;20.90;87.30;;;;;;4952617;28;20081;-76
2023/06/17 08:02:42;;;;;;;13.65;6.78;;;20.90;87.60;;;;;;5035270;28;20379;-75
2023/06/17 08:05:08;;;;;;;12.00;6.03;;;21.00;87.30;;;;;;4952681;28;20027;-75
2023/06/17 08:07:35;;;;;;;11.00;6.57;;;21.10;88.00;;;;;;4952257;28;20432;-75
2023/06/17 08:10:01;;;;;;;5.90;4.70;;;21.10;87.90;;;;;;5018472;28;20118;-75
2023/06/17 08:12:26;;;;;;;9.40;5.82;;;21.20;86.50;;;;;;4952341;28;20023;-76
2023/06/17 08:14:52;;;;;;;8.80;5.50;;;21.20;85.60;;;;;;4952541;28;20037;-76
2023/06/17 08:17:18;;;;;;;4.93;4.43;;;21.30;85.70;;;;;;4952263;28;20031;-75
2023/06/17 08:19:44;;;;;;;24.25;10.30;;;21.40;85.00;;;;;;4952501;28;20023;-76
2023/06/17 08:22:10;;;;;;;9.52;5.32;;;21.40;84.50;;;;;;4951682;28;20031;-77
2023/06/17 08:24:36;;;;;;;8.35;4.65;;;21.50;84.50;;;;;;4952182;28;20015;-76
2023/06/17 08:27:02;;;;;;;10.00;5.40;;;21.60;84.80;;;;;;4952413;28;20057;-76
2023/06/17 08:29:27;;;;;;;11.48;6.63;;;21.60;84.60;;;;;;4952005;28;20034;-76
2023/06/17 08:31:54;;;;;;;7.65;4.28;;;21.70;84.40;;;;;;4951965;28;20058;-76
2023/06/17 08:34:21;;;;;;;7.05;4.13;;;21.80;83.40;;;;;;4952167;28;20030;-75
2023/06/17 08:36:49;;;;;;;15.45;6.93;;;21.90;82.00;;;;;;4952121;28;20532;-75
2023/06/17 08:39:15;;;;;;;8.35;4.95;;;22.00;82.30;;;;;;4951853;28;20046;-74
2023/06/17 08:41:42;;;;;;;7.30;4.15;;;22.10;82.80;;;;;;4952131;28;20023;-76
2023/06/17 08:44:10;;;;;;;7.97;4.72;;;22.10;81.30;;;;;;4951938;28;20059;-75
2023/06/17 08:46:36;;;;;;;8.05;4.38;;;22.20;81.50;;;;;;4952126;28;20027;-76
2023/06/17 08:49:02;;;;;;;8.10;4.65;;;22.20;81.50;;;;;;4952012;28;20027;-76
2023/06/17 08:51:28;;;;;;;8.40;4.43;;;22.20;81.00;;;;;;4951993;28;20081;-76
2023/06/17 08:53:55;;;;;;;9.80;4.50;;;22.30;80.40;;;;;;4952068;28;20058;-76
2023/06/17 08:56:21;;;;;;;5.72;4.22;;;22.40;80.40;;;;;;4952203;28;20491;-76
2023/06/17 08:58:47;;;;;;;7.30;3.83;;;22.40;79.30;;;;;;4951895;28;20077;-76
2023/06/17 09:01:14;;;;;;;7.15;4.03;;;22.50;78.10;;;;;;4952047;28;20023;-76
2023/06/17 09:03:41;;;;;;;6.57;4.07;;;22.50;76.90;;;;;;4952481;28;20023;-75
2023/06/17 09:06:17;;;;;;;6.03;4.40;;;22.60;76.80;;;;;;4949770;28;20415;-74
2023/06/17 09:08:43;;;;;;;5.30;3.80;;;22.60;77.20;;;;;;4949123;28;20038;-78
2023/06/17 09:11:10;;;;;;;6.20;3.47;;;22.60;76.50;;;;;;4949215;28;20392;-75
2023/06/17 09:13:36;;;;;;;6.57;3.88;;;22.70;74.50;;;;;;4951212;28;20483;-76
2023/06/17 09:16:02;;;;;;;4.70;3.33;;;22.70;73.00;;;;;;4951345;28;20048;-77
2023/06/17 09:18:31;;;;;;;4.40;3.33;;;22.80;73.40;;;;;;5000211;28;20374;-75
2023/06/17 09:20:57;;;;;;;4.63;2.97;;;22.80;73.20;;;;;;5051815;28;20025;-76
2023/06/17 09:23:23;;;;;;;6.32;3.60;;;22.80;72.70;;;;;;5052149;28;20100;-77
2023/06/17 09:26:02;;;;;;;5.05;3.90;;;22.90;72.40;;;;;;5051897;28;20477;-76
2023/06/17 09:28:27;;;;;;;5.10;3.65;;;22.90;73.60;;;;;;5051525;28;20021;-77
2023/06/17 09:30:56;;;;;;;4.85;3.50;;;22.90;73.20;;;;;;5052239;28;20037;-76
2023/06/17 09:33:23;;;;;;;4.13;3.72;;;23.00;73.00;;;;;;5050000;28;20029;-78
2023/06/17 09:36:00;;;;;;;4.82;3.28;;;23.10;71.70;;;;;;5052678;28;20560;-75
2023/06/17 09:38:27;;;;;;;7.22;3.50;;;23.10;70.70;;;;;;5054607;28;20021;-77
2023/06/17 09:40:54;;;;;;;4.63;3.45;;;23.10;70.80;;;;;;5056059;28;20362;-75
2023/06/17 09:43:23;;;;;;;4.00;3.40;;;23.20;71.00;;;;;;5056098;28;20048;-74
2023/06/17 09:45:54;;;;;;;4.22;3.40;;;23.20;70.90;;;;;;5055817;28;20025;-76
2023/06/17 09:48:24;;;;;;;4.22;3.45;;;23.30;71.20;;;;;;5056183;28;20027;-75
2023/06/17 09:50:55;;;;;;;230.32;14.25;;;23.30;72.20;;;;;;5055724;28;20075;-72
2023/06/17 09:53:27;;;;;;;8.43;3.40;;;23.40;72.70;;;;;;5056014;28;20025;-72
2023/06/17 09:55:57;;;;;;;5.80;3.58;;;23.40;69.00;;;;;;5055862;28;20032;-73
2023/06/17 09:58:28;;;;;;;4.45;3.40;;;23.50;67.80;;;;;;5055801;28;20087;-75
2023/06/17 10:01:07;;;;;;;12.80;4.47;;;23.50;68.50;;;;;;5055762;28;20063;-74
2023/06/17 10:03:34;;;;;;;4.68;3.70;;;23.60;69.00;;;;;;5055925;28;20423;-74
2023/06/17 10:06:08;;;;;;;4.65;3.50;;;23.70;68.60;;;;;;5037855;28;20033;-75
2023/06/17 10:08:36;;;;;;;6.07;3.50;;;23.80;69.70;;;;;;5056079;28;20033;-74
2023/06/17 10:11:02;;;;;;;5.20;3.47;;;23.80;68.20;;;;;;5055160;28;20082;-74
2023/06/17 10:13:35;;;;;;;5.20;3.25;;;23.90;67.20;;;;;;5055541;28;20383;-73
2023/06/17 10:16:03;;;;;;;4.65;3.65;;;23.90;66.60;;;;;;5055525;28;20033;-74
2023/06/17 10:18:32;;;;;;;3.97;3.00;;;24.00;65.60;;;;;;5055449;28;20025;-74
2023/06/17 10:21:00;;;;;;;4.35;2.90;;;24.00;63.70;;;;;;5055253;28;20086;-75
2023/06/17 10:23:27;;;;;;;3.30;3.00;;;24.00;62.80;;;;;;5055469;28;20079;-74
2023/06/17 10:25:55;;;;;;;4.63;3.20;;;24.10;62.50;;;;;;5055392;28;20025;-74
2023/06/17 10:28:21;;;;;;;6.30;3.03;;;24.20;61.90;;;;;;5055247;28;20028;-74
2023/06/17 10:30:51;;;;;;;3.70;2.97;;;24.20;62.40;;;;;;5037442;28;20037;-75
2023/06/17 10:33:27;;;;;;;10.07;3.55;;;24.20;64.00;;;;;;5054981;28;20071;-75
2023/06/17 10:36:06;;;;;;;7.07;3.72;;;24.30;64.50;;;;;;5054883;28;20455;-74
2023/06/17 10:38:34;;;;;;;5.78;3.95;;;24.30;62.90;;;;;;5055029;28;20329;-72
2023/06/17 10:41:00;;;;;;;5.05;3.53;;;24.30;64.50;;;;;;5054593;28;20029;-74
2023/06/17 10:43:27;;;;;;;5.50;3.40;;;24.40;65.00;;;;;;5054724;28;20078;-75
2023/06/17 10:45:56;;;;;;;6.15;4.10;;;24.50;64.20;;;;;;5054070;28;20087;-74
2023/06/17 10:48:32;;;;;;;5.07;3.55;;;24.50;64.70;;;;;;5054902;28;20483;-74
2023/06/17 10:51:01;;;;;;;8.55;3.85;;;24.60;65.40;;;;;;5054966;28;20029;-74
2023/06/17 10:53:28;;;;;;;5.38;3.50;;;24.70;65.60;;;;;;5054981;28;20029;-74
2023/06/17 10:55:56;;;;;;;5.35;3.78;;;24.70;65.30;;;;;;5055070;28;20025;-74
2023/06/17 10:58:22;;;;;;;5.45;3.80;;;24.80;64.90;;;;;;5054604;28;20115;-74
2023/06/17 11:00:57;;;;;;;6.47;4.18;;;24.80;63.60;;;;;;5054897;28;20052;-73
2023/06/17 11:03:23;;;;;;;6.45;3.83;;;24.80;63.50;;;;;;5054669;28;20021;-74
2023/06/17 11:05:50;;;;;;;4.50;3.42;;;24.80;64.30;;;;;;5054569;28;20029;-74
2023/06/17 11:08:16;;;;;;;4.25;3.80;;;24.90;63.40;;;;;;5054603;28;20024;-74
2023/06/17 11:10:41;;;;;;;6.63;4.00;;;24.90;64.20;;;;;;5054548;28;20036;-74
2023/06/17 11:13:07;;;;;;;7.32;3.90;;;24.90;64.80;;;;;;5053074;28;20024;-75
2023/06/17 11:15:33;;;;;;;5.78;4.30;;;25.00;64.20;;;;;;5051540;28;20468;-75
2023/06/17 11:18:03;;;;;;;7.88;3.90;;;25.10;64.00;;;;;;5052240;28;20092;-74
2023/06/17 11:20:35;;;;;;;7.57;4.60;;;25.10;65.00;;;;;;5054616;28;20102;-74
2023/06/17 11:23:03;;;;;;;5.72;3.90;;;25.10;64.60;;;;;;5054418;28;20152;-74
2023/06/17 11:25:29;;;;;;;7.78;4.18;;;25.20;65.30;;;;;;5053902;28;20385;-74
2023/06/17 11:27:56;;;;;;;7.45;4.10;;;25.20;64.90;;;;;;5054029;28;20025;-74
2023/06/17 11:30:25;;;;;;;5.78;3.90;;;25.20;64.20;;;;;;5054249;28;20052;-75
2023/06/17 11:32:51;;;;;;;7.38;4.55;;;25.20;63.60;;;;;;5054263;28;20021;-74
2023/06/17 11:35:16;;;;;;;7.57;4.07;;;25.30;63.50;;;;;;5053946;28;20049;-74
2023/06/17 11:37:42;;;;;;;5.63;4.93;;;25.30;64.70;;;;;;5052982;28;20064;-74
2023/06/17 11:40:12;;;;;;;5.15;3.90;;;25.30;66.40;;;;;;5050901;28;20484;-75
2023/06/17 11:42:40;;;;;;;7.22;4.50;;;25.40;67.30;;;;;;5050906;28;20028;-74
2023/06/17 11:45:06;;;;;;;7.15;4.53;;;25.40;66.70;;;;;;5052427;28;20025;-75
2023/06/17 11:47:33;;;;;;;7.53;4.00;;;25.50;65.30;;;;;;5053574;28;20025;-74
2023/06/17 11:49:59;;;;;;;5.13;4.30;;;25.50;63.50;;;;;;5053783;28;20112;-74
2023/06/17 11:52:25;;;;;;;7.63;3.90;;;25.50;64.20;;;;;;5053692;28;20025;-74
2023/06/17 11:54:55;;;;;;;5.95;3.75;;;25.60;63.40;;;;;;5053630;28;20049;-74
2023/06/17 11:57:22;;;;;;;5.22;4.05;;;25.60;62.10;;;;;;5052706;28;20032;-74
2023/06/17 11:59:48;;;;;;;5.55;3.67;;;25.60;61.90;;;;;;5053522;28;20101;-74
2023/06/17 12:02:15;;;;;;;8.07;3.95;;;25.70;61.70;;;;;;5052830;28;20032;-74
2023/06/17 12:04:47;;;;;;;5.20;4.38;;;25.70;60.90;;;;;;5053619;28;20086;-74
2023/06/17 12:07:14;;;;;;;5.30;3.92;;;25.70;59.40;;;;;;5053457;28;20359;-75
2023/06/17 12:09:50;;;;;;;4.22;3.40;;;25.70;59.70;;;;;;5052997;28;20032;-75
2023/06/17 12:12:32;;;;;;;4.47;3.10;;;25.70;59.90;;;;;;5053459;28;20032;-75
2023/06/17 12:15:03;;;;;;;11.30;3.80;;;25.70;60.00;;;;;;5053298;28;20112;-75
2023/06/17 12:17:57;;;;;;;5.10;3.75;;;25.70;60.60;;;;;;5035426;28;20025;-76
2023/06/17 12:20:23;;;;;;;6.10;3.38;;;25.70;59.80;;;;;;5049800;28;20036;-74
2023/06/17 12:22:55;;;;;;;5.22;3.47;;;25.80;60.30;;;;;;5053011;28;20057;-74
2023/06/17 12:25:21;;;;;;;7.32;4.95;;;25.80;59.90;;;;;;5053096;28;20056;-74
2023/06/17 12:27:47;;;;;;;5.18;3.40;;;25.80;60.80;;;;;;5052903;28;20416;-73
2023/06/17 12:30:13;;;;;;;5.38;3.47;;;25.90;60.40;;;;;;5052732;28;20481;-74
2023/06/17 12:32:42;;;;;;;5.03;3.38;;;25.90;58.90;;;;;;5053105;28;20381;-75
2023/06/17 12:35:12;;;;;;;5.53;3.33;;;26.00;58.20;;;;;;5052666;28;20084;-74
2023/06/17 12:37:41;;;;;;;5.30;3.55;;;26.00;58.20;;;;;;5052868;28;20531;-74
2023/06/17 12:40:08;;;;;;;5.93;3.20;;;26.00;57.50;;;;;;5053192;28;20388;-74
2023/06/17 12:42:35;;;;;;;5.13;3.75;;;26.00;58.80;;;;;;5052868;28;20032;-75